createdAt,value
2023-03-29T00:00:42.297Z,111.12
2023-03-29T00:01:42.274Z,111.88
2023-03-29T00:02:42.481Z,105.78
2023-03-29T00:03:42.488Z,115.97
2023-03-29T00:04:42.464Z,100.24
2023-03-29T00:05:42.344Z,108.66
2023-03-29T00:06:42.369Z,78.18
2023-03-29T00:07:42.400Z,103.85
2023-03-29T00:08:42.501Z,109.26
2023-03-29T00:09:42.520Z,100.55
2023-03-29T00:10:42.605Z,111.88
2023-03-29T00:11:42.580Z,110.03
2023-03-29T00:12:42.620Z,86.95
2023-03-29T00:13:42.625Z,66.37
2023-03-29T00:14:42.667Z,87.53
2023-03-29T00:15:42.686Z,80.14
2023-03-29T00:16:42.722Z,94.66
2023-03-29T00:17:42.777Z,112.66
2023-03-29T00:18:42.757Z,105.94
2023-03-29T00:19:42.778Z,108.98
2023-03-29T00:20:42.801Z,97.16
2023-03-29T00:21:42.811Z,112.71
2023-03-29T00:22:42.852Z,106.14
2023-03-29T00:23:42.854Z,103.53
2023-03-29T00:24:42.876Z,95.04
2023-03-29T00:25:42.918Z,103.07
2023-03-29T00:26:42.959Z,109.44
2023-03-29T00:27:42.954Z,107.51
2023-03-29T00:28:42.985Z,97.66
2023-03-29T00:29:43.024Z,83.31
2023-03-29T00:30:43.023Z,82.25
2023-03-29T00:31:43.157Z,94.81
2023-03-29T00:32:43.191Z,84.68
2023-03-29T00:33:43.122Z,75.71
2023-03-29T00:34:43.127Z,66.59
2023-03-29T00:35:43.170Z,70.88
2023-03-29T00:36:43.188Z,66.74
2023-03-29T00:37:43.214Z,59.52
2023-03-29T00:38:43.236Z,64.01
2023-03-29T00:39:43.253Z,88.12
2023-03-29T00:40:43.306Z,90.71
2023-03-29T00:41:43.297Z,93.74
2023-03-29T00:42:43.314Z,68.89
2023-03-29T00:43:43.372Z,83.84
2023-03-29T00:44:43.363Z,93.12
2023-03-29T00:45:43.382Z,96.96
2023-03-29T00:46:43.482Z,71.32
2023-03-29T00:47:43.498Z,70.79
2023-03-29T00:48:43.487Z,65.44
2023-03-29T00:49:43.522Z,86.43
2023-03-29T00:50:43.522Z,90.48
2023-03-29T00:51:43.548Z,75.22
2023-03-29T00:52:43.609Z,66.92
2023-03-29T00:53:43.619Z,57.37
2023-03-29T00:54:43.627Z,61.29
2023-03-29T00:55:43.669Z,80.24
2023-03-29T00:56:43.717Z,92.15
2023-03-29T00:57:43.719Z,91.50
2023-03-29T00:58:43.729Z,93.27
2023-03-29T00:59:43.753Z,78.69
2023-03-29T01:00:43.775Z,89.72
2023-03-29T01:01:43.843Z,102.66
2023-03-29T01:02:43.979Z,96.42
2023-03-29T01:03:43.983Z,104.71
2023-03-29T01:04:43.892Z,92.24
2023-03-29T01:05:43.928Z,84.75
2023-03-29T01:06:44.023Z,91.65
2023-03-29T01:07:43.975Z,99.15
2023-03-29T01:08:44.012Z,83.60
2023-03-29T01:09:44.014Z,83.86
2023-03-29T01:10:44.068Z,88.61
2023-03-29T01:11:44.078Z,87.17
2023-03-29T01:12:44.128Z,90.63
2023-03-29T01:13:44.129Z,94.14
2023-03-29T01:14:44.180Z,95.50
2023-03-29T01:15:44.187Z,86.26
2023-03-29T01:16:44.220Z,74.20
2023-03-29T01:17:44.247Z,67.73
2023-03-29T01:18:44.272Z,86.71
2023-03-29T01:19:44.274Z,86.35
2023-03-29T01:20:44.332Z,86.84
2023-03-29T01:21:44.339Z,89.10
2023-03-29T01:22:44.371Z,81.06
2023-03-29T01:23:44.380Z,89.55
2023-03-29T01:24:44.405Z,84.90
2023-03-29T01:25:44.445Z,95.25
2023-03-29T01:26:44.474Z,85.69
2023-03-29T01:27:44.534Z,87.44
2023-03-29T01:28:44.548Z,87.20
2023-03-29T01:29:44.536Z,89.49
2023-03-29T01:30:44.573Z,100.11
2023-03-29T01:31:44.601Z,82.36
2023-03-29T01:32:44.703Z,79.24
2023-03-29T01:33:44.646Z,89.58
2023-03-29T01:34:44.653Z,94.98
2023-03-29T01:35:44.718Z,100.58
2023-03-29T01:36:44.705Z,75.53
2023-03-29T01:37:44.717Z,70.24
2023-03-29T01:38:44.755Z,71.91
2023-03-29T01:39:44.784Z,58.24
2023-03-29T01:40:44.803Z,84.61
2023-03-29T01:41:44.815Z,78.46
2023-03-29T01:42:44.850Z,65.49
2023-03-29T01:43:44.890Z,83.77
2023-03-29T01:44:44.909Z,88.35
2023-03-29T01:45:44.954Z,67.00
2023-03-29T01:46:44.936Z,52.73
2023-03-29T01:47:45.010Z,55.78
2023-03-29T01:48:44.990Z,48.66
2023-03-29T01:49:45.033Z,59.09
2023-03-29T01:50:45.060Z,57.38
2023-03-29T01:51:45.089Z,69.06
2023-03-29T01:52:45.130Z,83.35
2023-03-29T01:53:45.145Z,84.25
2023-03-29T01:54:45.198Z,88.93
2023-03-29T01:55:45.198Z,89.17
2023-03-29T01:56:45.261Z,93.33
2023-03-29T01:57:45.262Z,85.21
2023-03-29T01:58:45.288Z,95.65
2023-03-29T01:59:45.317Z,96.60
2023-03-29T02:00:45.352Z,100.78
2023-03-29T02:01:45.391Z,97.68
2023-03-29T02:02:45.508Z,99.37
2023-03-29T02:03:45.486Z,102.74
2023-03-29T02:04:45.462Z,95.03
2023-03-29T02:05:45.477Z,91.51
2023-03-29T02:06:45.601Z,79.73
2023-03-29T02:07:45.522Z,97.04
2023-03-29T02:08:45.573Z,98.45
2023-03-29T02:09:45.605Z,91.86
2023-03-29T02:10:45.639Z,76.13
2023-03-29T02:11:45.652Z,78.79
2023-03-29T02:12:45.997Z,88.24
2023-03-29T02:13:45.687Z,87.52
2023-03-29T02:14:45.716Z,85.80
2023-03-29T02:15:45.839Z,75.62
2023-03-29T02:16:45.779Z,63.80
2023-03-29T02:17:45.827Z,53.96
2023-03-29T02:18:45.827Z,73.33
2023-03-29T02:19:45.856Z,66.99
2023-03-29T02:20:45.910Z,80.98
2023-03-29T02:21:45.910Z,76.15
2023-03-29T02:22:45.941Z,73.02
2023-03-29T02:23:45.988Z,89.00
2023-03-29T02:24:46.017Z,82.63
2023-03-29T02:25:46.032Z,71.50
2023-03-29T02:26:46.051Z,77.03
2023-03-29T02:27:46.106Z,85.93
2023-03-29T02:28:46.114Z,92.60
2023-03-29T02:29:46.147Z,87.02
2023-03-29T02:30:46.206Z,87.20
2023-03-29T02:31:46.215Z,79.01
2023-03-29T02:32:46.224Z,70.68
2023-03-29T02:33:46.258Z,64.28
2023-03-29T02:34:46.281Z,86.60
2023-03-29T02:35:46.333Z,83.46
2023-03-29T02:36:46.330Z,75.92
2023-03-29T02:37:46.366Z,80.65
2023-03-29T02:38:46.383Z,93.73
2023-03-29T02:39:46.409Z,65.58
2023-03-29T02:40:46.435Z,66.24
2023-03-29T02:41:46.475Z,61.60
2023-03-29T02:42:46.497Z,69.20
2023-03-29T02:43:46.543Z,85.03
2023-03-29T02:44:46.556Z,85.95
2023-03-29T02:45:46.570Z,80.97
2023-03-29T02:46:46.598Z,63.00
2023-03-29T02:47:46.699Z,56.56
2023-03-29T02:48:46.661Z,63.38
2023-03-29T02:49:46.704Z,76.73
2023-03-29T02:50:46.707Z,86.80
2023-03-29T02:51:46.743Z,85.74
2023-03-29T02:52:46.752Z,79.64
2023-03-29T02:53:46.787Z,78.17
2023-03-29T02:54:46.831Z,90.52
2023-03-29T02:55:46.873Z,92.35
2023-03-29T02:56:46.892Z,98.74
2023-03-29T02:57:46.922Z,91.20
2023-03-29T02:58:46.939Z,92.79
2023-03-29T02:59:46.967Z,76.80
2023-03-29T03:00:46.985Z,86.39
2023-03-29T03:01:47.052Z,86.03
2023-03-29T03:02:47.107Z,80.04
2023-03-29T03:03:47.135Z,76.11
2023-03-29T03:04:47.094Z,93.00
2023-03-29T03:05:47.130Z,93.87
2023-03-29T03:06:47.159Z,95.17
2023-03-29T03:07:47.175Z,90.75
2023-03-29T03:08:47.207Z,91.70
2023-03-29T03:09:47.243Z,99.50
2023-03-29T03:10:47.267Z,91.26
2023-03-29T03:11:47.284Z,96.40
2023-03-29T03:12:47.301Z,100.45
2023-03-29T03:13:47.353Z,96.70
2023-03-29T03:14:47.367Z,99.81
2023-03-29T03:15:47.388Z,101.90
2023-03-29T03:16:47.483Z,92.62
2023-03-29T03:17:47.485Z,103.03
2023-03-29T03:18:47.512Z,98.54
2023-03-29T03:19:47.518Z,100.67
2023-03-29T03:20:47.530Z,98.00
2023-03-29T03:21:47.565Z,103.84
2023-03-29T03:22:47.571Z,94.94
2023-03-29T03:23:47.606Z,91.52
2023-03-29T03:24:47.641Z,88.32
2023-03-29T03:25:47.661Z,93.31
2023-03-29T03:26:47.709Z,92.18
2023-03-29T03:27:47.726Z,95.36
2023-03-29T03:28:47.752Z,82.32
2023-03-29T03:29:47.805Z,84.49
2023-03-29T03:30:47.817Z,89.74
2023-03-29T03:31:47.874Z,76.37
2023-03-29T03:32:47.935Z,77.25
2023-03-29T03:33:47.899Z,87.97
2023-03-29T03:34:47.953Z,70.01
2023-03-29T03:35:48.031Z,60.72
2023-03-29T03:36:47.988Z,55.28
2023-03-29T03:37:48.008Z,78.73
2023-03-29T03:38:48.050Z,86.10
2023-03-29T03:39:48.086Z,89.20
2023-03-29T03:40:48.120Z,97.39
2023-03-29T03:41:48.148Z,108.08
2023-03-29T03:42:48.172Z,90.69
2023-03-29T03:43:48.215Z,97.84
2023-03-29T03:44:48.223Z,88.89
2023-03-29T03:45:48.294Z,99.64
2023-03-29T03:46:48.292Z,86.62
2023-03-29T03:47:48.371Z,94.05
2023-03-29T03:48:48.341Z,89.84
2023-03-29T03:49:48.389Z,88.36
2023-03-29T03:50:48.408Z,87.44
2023-03-29T03:51:49.831Z,80.41
2023-03-29T03:52:48.557Z,89.98
2023-03-29T03:53:48.576Z,88.27
2023-03-29T03:54:48.617Z,87.71
2023-03-29T03:55:48.631Z,77.01
2023-03-29T03:56:48.724Z,82.05
2023-03-29T03:57:48.692Z,85.46
2023-03-29T03:58:48.724Z,99.01
2023-03-29T03:59:48.746Z,104.89
2023-03-29T04:00:48.766Z,98.79
2023-03-29T04:01:48.806Z,98.81
2023-03-29T04:02:48.931Z,91.51
2023-03-29T04:03:48.983Z,104.04
2023-03-29T04:04:48.857Z,109.78
2023-03-29T04:05:48.945Z,88.73
2023-03-29T04:06:48.909Z,101.05
2023-03-29T04:07:48.947Z,95.11
2023-03-29T04:08:48.980Z,102.54
2023-03-29T04:09:48.987Z,107.50
2023-03-29T04:10:49.006Z,106.77
2023-03-29T04:11:49.051Z,106.53
2023-03-29T04:12:49.132Z,92.36
2023-03-29T04:13:49.107Z,102.63
2023-03-29T04:14:49.127Z,102.98
2023-03-29T04:15:49.197Z,88.69
2023-03-29T04:16:49.181Z,99.07
2023-03-29T04:17:49.265Z,83.35
2023-03-29T04:18:49.305Z,66.30
2023-03-29T04:19:49.269Z,80.88
2023-03-29T04:20:49.276Z,76.11
2023-03-29T04:21:49.317Z,71.12
2023-03-29T04:22:49.347Z,72.00
2023-03-29T04:23:49.374Z,96.23
2023-03-29T04:24:49.394Z,100.20
2023-03-29T04:25:49.419Z,101.42
2023-03-29T04:26:49.447Z,90.95
2023-03-29T04:27:49.503Z,71.47
2023-03-29T04:28:49.543Z,72.71
2023-03-29T04:29:49.542Z,80.77
2023-03-29T04:30:49.634Z,92.35
2023-03-29T04:31:49.696Z,95.80
2023-03-29T04:32:49.660Z,93.79
2023-03-29T04:33:49.656Z,89.05
2023-03-29T04:34:49.692Z,73.24
2023-03-29T04:35:49.707Z,72.83
2023-03-29T04:36:49.738Z,68.09
2023-03-29T04:37:49.835Z,64.41
2023-03-29T04:38:49.786Z,64.11
2023-03-29T04:39:49.801Z,77.15
2023-03-29T04:40:49.831Z,87.24
2023-03-29T04:41:49.883Z,84.31
2023-03-29T04:42:49.912Z,85.74
2023-03-29T04:43:49.936Z,69.14
2023-03-29T04:44:50.012Z,79.59
2023-03-29T04:45:49.974Z,93.20
2023-03-29T04:46:50.106Z,96.12
2023-03-29T04:47:50.072Z,100.31
2023-03-29T04:48:50.056Z,105.22
2023-03-29T04:49:50.084Z,100.49
2023-03-29T04:50:50.126Z,99.97
2023-03-29T04:51:50.112Z,97.91
2023-03-29T04:52:50.151Z,101.35
2023-03-29T04:53:50.192Z,93.84
2023-03-29T04:54:50.201Z,98.49
2023-03-29T04:55:50.237Z,97.88
2023-03-29T04:56:50.276Z,99.82
2023-03-29T04:57:50.285Z,94.72
2023-03-29T04:58:50.313Z,101.90
2023-03-29T04:59:50.346Z,102.60
2023-03-29T05:00:50.372Z,102.59
2023-03-29T05:01:50.444Z,102.15
2023-03-29T05:02:50.462Z,99.80
2023-03-29T05:03:50.493Z,98.85
2023-03-29T05:04:50.512Z,102.79
2023-03-29T05:05:50.479Z,99.05
2023-03-29T05:06:50.516Z,101.01
2023-03-29T05:07:50.536Z,97.44
2023-03-29T05:08:50.555Z,99.00
2023-03-29T05:09:50.614Z,107.21
2023-03-29T05:10:50.610Z,102.49
2023-03-29T05:11:50.649Z,106.05
2023-03-29T05:12:50.650Z,98.97
2023-03-29T05:13:50.676Z,97.14
2023-03-29T05:14:50.698Z,103.34
2023-03-29T05:15:50.774Z,97.63
2023-03-29T05:16:50.783Z,101.70
2023-03-29T05:17:50.841Z,104.37
2023-03-29T05:18:50.797Z,97.20
2023-03-29T05:19:50.853Z,101.96
2023-03-29T05:20:50.861Z,102.22
2023-03-29T05:21:50.908Z,103.97
2023-03-29T05:22:50.910Z,108.05
2023-03-29T05:23:50.949Z,109.10
2023-03-29T05:24:50.961Z,111.66
2023-03-29T05:25:51.012Z,111.02
2023-03-29T05:26:51.047Z,107.32
2023-03-29T05:27:51.044Z,95.34
2023-03-29T05:28:51.063Z,53.01
2023-03-29T05:29:51.116Z,55.28
2023-03-29T05:30:51.160Z,52.10
2023-03-29T05:31:51.203Z,53.02
2023-03-29T05:32:51.209Z,65.43
2023-03-29T05:33:51.224Z,74.30
2023-03-29T05:34:51.235Z,71.52
2023-03-29T05:35:51.283Z,71.24
2023-03-29T05:36:51.291Z,91.10
2023-03-29T05:37:51.307Z,101.56
2023-03-29T05:38:51.305Z,111.22
2023-03-29T05:39:51.325Z,114.65
2023-03-29T05:40:51.316Z,115.28
2023-03-29T05:41:51.329Z,136.37
2023-03-29T05:42:51.314Z,148.91
2023-03-29T05:43:51.325Z,160.40
2023-03-29T05:44:53.418Z,164.83
2023-03-29T05:45:51.398Z,166.41
2023-03-29T05:46:51.336Z,172.30
2023-03-29T05:47:51.372Z,179.91
2023-03-29T05:48:51.301Z,181.34
2023-03-29T05:49:51.302Z,188.84
2023-03-29T05:50:51.335Z,191.45
2023-03-29T05:51:51.295Z,193.90
2023-03-29T05:52:51.271Z,195.82
2023-03-29T05:53:51.272Z,194.60
2023-03-29T05:54:51.264Z,193.05
2023-03-29T05:55:51.297Z,205.47
2023-03-29T05:56:51.257Z,210.30
2023-03-29T05:57:51.257Z,211.32
2023-03-29T05:58:53.019Z,215.67
2023-03-29T05:59:51.232Z,216.02
2023-03-29T06:00:51.278Z,217.22
2023-03-29T06:01:51.226Z,219.72
2023-03-29T06:02:51.360Z,220.37
2023-03-29T06:03:51.292Z,226.24
2023-03-29T06:04:51.233Z,230.12
2023-03-29T06:05:51.186Z,236.67
2023-03-29T06:06:51.189Z,235.23
2023-03-29T06:07:51.166Z,240.73
2023-03-29T06:08:51.171Z,240.21
2023-03-29T06:09:51.153Z,243.82
2023-03-29T06:10:51.144Z,246.03
2023-03-29T06:11:51.151Z,244.87
2023-03-29T06:12:51.137Z,271.49
2023-03-29T06:13:51.127Z,271.06
2023-03-29T06:14:51.111Z,227.99
2023-03-29T06:15:51.103Z,222.51
2023-03-29T06:16:51.141Z,222.01
2023-03-29T06:17:51.177Z,222.35
2023-03-29T06:18:51.075Z,221.72
2023-03-29T06:19:51.084Z,220.33
2023-03-29T06:20:51.086Z,218.00
2023-03-29T06:21:51.056Z,219.12
2023-03-29T06:22:51.070Z,221.17
2023-03-29T06:23:51.046Z,217.60
2023-03-29T06:24:51.034Z,222.43
2023-03-29T06:25:51.589Z,221.85
2023-03-29T06:26:51.038Z,241.28
2023-03-29T06:27:51.005Z,241.39
2023-03-29T06:28:52.345Z,234.74
2023-03-29T06:29:51.002Z,228.08
2023-03-29T06:30:51.096Z,226.54
2023-03-29T06:31:51.057Z,224.07
2023-03-29T06:32:51.065Z,222.77
2023-03-29T06:33:50.968Z,220.48
2023-03-29T06:34:51.002Z,224.30
2023-03-29T06:35:51.011Z,229.61
2023-03-29T06:36:50.947Z,223.29
2023-03-29T06:37:50.975Z,232.90
2023-03-29T06:38:50.961Z,234.62
2023-03-29T06:39:53.306Z,237.96
2023-03-29T06:40:50.966Z,242.56
2023-03-29T06:41:51.000Z,242.79
2023-03-29T06:42:50.985Z,244.05
2023-03-29T06:43:50.962Z,243.71
2023-03-29T06:44:50.966Z,245.27
2023-03-29T06:45:51.002Z,247.59
2023-03-29T06:46:52.579Z,249.67
2023-03-29T06:47:51.561Z,248.07
2023-03-29T06:48:51.049Z,248.98
2023-03-29T06:49:51.064Z,249.69
2023-03-29T06:50:51.092Z,249.92
2023-03-29T06:51:51.120Z,249.28
2023-03-29T06:52:51.581Z,246.49
2023-03-29T06:53:51.212Z,247.30
2023-03-29T06:54:51.633Z,250.00
2023-03-29T06:55:51.304Z,242.61
2023-03-29T06:56:51.383Z,243.62
2023-03-29T06:57:51.575Z,243.33
2023-03-29T06:58:51.517Z,244.31
2023-03-29T06:59:51.589Z,245.98
2023-03-29T07:00:51.744Z,247.08
2023-03-29T07:01:51.828Z,246.43
2023-03-29T07:02:52.086Z,246.90
2023-03-29T07:03:52.017Z,245.21
2023-03-29T07:04:51.993Z,245.34
2023-03-29T07:05:52.175Z,246.41
2023-03-29T07:06:52.109Z,247.84
2023-03-29T07:07:52.562Z,247.46
2023-03-29T07:08:52.252Z,248.90
2023-03-29T07:09:52.276Z,249.43
2023-03-29T07:10:52.383Z,247.20
2023-03-29T07:11:52.410Z,246.17
2023-03-29T07:12:52.484Z,244.30
2023-03-29T07:13:52.566Z,244.81
2023-03-29T07:14:52.593Z,245.50
2023-03-29T07:15:52.663Z,244.37
2023-03-29T07:16:52.715Z,243.31
2023-03-29T07:17:52.829Z,240.96
2023-03-29T07:18:52.887Z,242.62
2023-03-29T07:19:52.873Z,240.61
2023-03-29T07:20:52.937Z,235.54
2023-03-29T07:21:53.055Z,235.30
2023-03-29T07:22:53.069Z,233.69
2023-03-29T07:23:53.113Z,234.53
2023-03-29T07:24:53.189Z,235.85
2023-03-29T07:25:53.260Z,234.79
2023-03-29T07:27:53.546Z,233.93
2023-03-29T07:28:53.299Z,230.48
2023-03-29T07:29:53.291Z,225.09
2023-03-29T07:30:53.287Z,219.54
2023-03-29T07:31:53.287Z,224.23
2023-03-29T07:32:53.715Z,236.76
2023-03-29T07:33:53.354Z,241.00
2023-03-29T07:34:53.277Z,243.14
2023-03-29T07:35:53.302Z,244.42
2023-03-29T07:36:53.275Z,245.08
2023-03-29T07:37:53.530Z,245.21
2023-03-29T07:38:55.882Z,248.02
2023-03-29T07:39:53.239Z,248.12
2023-03-29T07:40:53.228Z,247.92
2023-03-29T07:41:53.212Z,247.53
2023-03-29T07:42:53.217Z,245.93
2023-03-29T07:43:53.189Z,244.77
2023-03-29T07:44:53.534Z,244.82
2023-03-29T07:45:53.259Z,244.26
2023-03-29T07:46:53.192Z,244.33
2023-03-29T07:47:53.224Z,242.56
2023-03-29T07:48:53.165Z,241.99
2023-03-29T07:49:53.550Z,243.26
2023-03-29T07:50:53.165Z,242.93
2023-03-29T07:51:53.149Z,243.62
2023-03-29T07:52:53.570Z,248.00
2023-03-29T07:53:53.136Z,247.74
2023-03-29T07:54:53.545Z,249.09
2023-03-29T07:55:53.108Z,249.50
2023-03-29T07:56:53.143Z,249.88
2023-03-29T07:57:53.113Z,246.46
2023-03-29T07:58:53.106Z,246.58
2023-03-29T07:59:53.544Z,248.52
2023-03-29T08:00:53.133Z,247.63
2023-03-29T08:01:53.088Z,245.85
2023-03-29T08:02:53.096Z,246.46
2023-03-29T08:03:53.135Z,244.74
2023-03-29T08:04:53.066Z,246.22
2023-03-29T08:05:53.105Z,245.03
2023-03-29T08:06:53.049Z,244.27
2023-03-29T08:07:53.047Z,240.79
2023-03-29T08:08:53.048Z,244.01
2023-03-29T08:09:53.019Z,238.34
2023-03-29T08:10:53.040Z,239.02
2023-03-29T08:11:53.012Z,237.74
2023-03-29T08:12:53.006Z,232.55
2023-03-29T08:13:52.991Z,232.40
2023-03-29T08:14:53.054Z,233.19
2023-03-29T08:15:52.992Z,233.26
2023-03-29T08:16:53.046Z,234.18
2023-03-29T08:17:53.018Z,233.78
2023-03-29T08:18:52.993Z,233.49
2023-03-29T08:19:53.047Z,231.21
2023-03-29T08:20:52.948Z,227.85
2023-03-29T08:21:52.944Z,215.82
2023-03-29T08:22:52.950Z,215.47
2023-03-29T08:23:52.954Z,210.00
2023-03-29T08:24:53.040Z,208.96
2023-03-29T08:25:52.933Z,217.00
2023-03-29T08:26:52.932Z,229.13
2023-03-29T08:27:53.042Z,222.05
2023-03-29T08:28:52.894Z,226.82
2023-03-29T08:29:52.930Z,229.15
2023-03-29T08:30:52.955Z,231.65
2023-03-29T08:31:52.888Z,231.60
2023-03-29T08:32:54.539Z,177.10
2023-03-29T08:33:52.980Z,57.74
2023-03-29T08:34:53.012Z,76.38
2023-03-29T08:35:53.030Z,90.85
2023-03-29T08:36:53.002Z,103.87
2023-03-29T08:37:53.045Z,131.09
2023-03-29T08:38:53.076Z,143.73
2023-03-29T08:39:53.116Z,148.51
2023-03-29T08:40:53.181Z,155.56
2023-03-29T08:41:53.227Z,162.75
2023-03-29T08:42:53.558Z,170.66
2023-03-29T08:43:53.352Z,174.51
2023-03-29T08:44:53.318Z,182.18
2023-03-29T08:45:53.400Z,187.85
2023-03-29T08:46:53.357Z,188.26
2023-03-29T08:47:53.490Z,190.63
2023-03-29T08:48:53.330Z,193.24
2023-03-29T08:49:53.362Z,196.92
2023-03-29T08:50:53.443Z,190.29
2023-03-29T08:51:53.522Z,194.34
2023-03-29T08:52:53.604Z,198.02
2023-03-29T08:53:53.705Z,200.36
2023-03-29T08:54:53.729Z,201.21
2023-03-29T08:55:53.777Z,203.09
2023-03-29T08:56:53.864Z,202.81
2023-03-29T08:57:53.889Z,204.51
2023-03-29T08:58:53.959Z,204.16
2023-03-29T08:59:53.994Z,204.81
2023-03-29T09:00:54.040Z,201.83
2023-03-29T09:01:54.143Z,205.07
2023-03-29T09:02:54.238Z,202.54
2023-03-29T09:03:54.260Z,201.35
2023-03-29T09:04:54.198Z,202.30
2023-03-29T09:05:54.233Z,203.32
2023-03-29T09:06:54.274Z,204.15
2023-03-29T09:07:54.291Z,205.97
2023-03-29T09:08:54.571Z,205.76
2023-03-29T09:09:54.373Z,206.19
2023-03-29T09:10:54.381Z,202.62
2023-03-29T09:11:54.419Z,204.08
2023-03-29T09:12:54.443Z,204.40
2023-03-29T09:13:54.458Z,202.47
2023-03-29T09:14:54.481Z,202.38
2023-03-29T09:15:54.544Z,203.42
2023-03-29T09:16:54.508Z,205.68
2023-03-29T09:17:54.592Z,203.93
2023-03-29T09:18:54.562Z,203.71
2023-03-29T09:19:54.571Z,201.92
2023-03-29T09:20:54.606Z,202.55
2023-03-29T09:21:54.604Z,201.29
2023-03-29T09:22:55.067Z,202.76
2023-03-29T09:23:55.726Z,202.08
2023-03-29T09:24:54.672Z,205.55
2023-03-29T09:25:54.673Z,204.07
2023-03-29T09:26:54.712Z,204.01
2023-03-29T09:27:55.067Z,208.73
2023-03-29T09:28:54.688Z,200.62
2023-03-29T09:29:54.709Z,188.62
2023-03-29T09:30:54.716Z,200.11
2023-03-29T09:31:54.791Z,207.18
2023-03-29T09:32:55.153Z,209.29
2023-03-29T09:33:55.045Z,210.07
2023-03-29T09:34:54.781Z,204.76
2023-03-29T09:35:54.837Z,202.31
2023-03-29T09:36:54.841Z,203.15
2023-03-29T09:37:54.877Z,201.62
2023-03-29T09:38:54.868Z,203.91
2023-03-29T09:39:54.901Z,202.58
2023-03-29T09:40:54.925Z,204.81
2023-03-29T09:41:54.946Z,206.22
2023-03-29T09:42:55.009Z,202.92
2023-03-29T09:43:55.030Z,198.12
2023-03-29T09:44:55.041Z,191.26
2023-03-29T09:45:55.085Z,199.52
2023-03-29T09:46:55.119Z,193.53
2023-03-29T09:47:55.242Z,183.01
2023-03-29T09:48:55.568Z,176.86
2023-03-29T09:49:55.251Z,177.01
2023-03-29T09:50:55.265Z,174.92
2023-03-29T09:51:55.316Z,175.39
2023-03-29T09:52:55.357Z,172.20
2023-03-29T09:53:55.400Z,172.54
2023-03-29T09:54:55.440Z,170.65
2023-03-29T09:55:55.489Z,167.03
2023-03-29T09:56:55.561Z,162.31
2023-03-29T09:57:55.551Z,164.59
2023-03-29T09:58:55.604Z,157.94
2023-03-29T09:59:55.653Z,158.90
2023-03-29T10:00:55.718Z,159.08
2023-03-29T10:01:55.788Z,160.08
2023-03-29T10:02:55.822Z,158.57
2023-03-29T10:03:56.111Z,157.39
2023-03-29T10:04:56.071Z,152.17
2023-03-29T10:05:55.924Z,155.25
2023-03-29T10:06:55.967Z,156.07
2023-03-29T10:07:56.015Z,150.28
2023-03-29T10:08:56.054Z,153.34
2023-03-29T10:09:56.149Z,148.32
2023-03-29T10:10:56.294Z,148.16
2023-03-29T10:11:56.186Z,147.09
2023-03-29T10:12:56.233Z,147.93
2023-03-29T10:13:56.295Z,148.63
2023-03-29T10:14:56.351Z,148.88
2023-03-29T10:15:56.382Z,142.90
2023-03-29T10:16:56.580Z,141.51
2023-03-29T10:17:56.520Z,144.34
2023-03-29T10:18:56.518Z,139.90
2023-03-29T10:19:56.571Z,138.30
2023-03-29T10:20:56.615Z,122.81
2023-03-29T10:21:56.642Z,111.10
2023-03-29T10:22:56.800Z,122.43
2023-03-29T10:23:56.831Z,124.45
2023-03-29T10:24:57.060Z,122.31
2023-03-29T10:25:56.988Z,80.80
2023-03-29T10:26:57.011Z,0.00
2023-03-29T10:27:56.987Z,0.00
2023-03-29T10:28:57.004Z,0.00
2023-03-29T10:29:57.085Z,0.00
2023-03-29T10:30:57.065Z,0.00
2023-03-29T10:31:57.165Z,0.00
2023-03-29T10:32:57.104Z,0.00
2023-03-29T10:33:57.144Z,1.09
2023-03-29T10:34:57.193Z,5.87
2023-03-29T10:35:57.243Z,14.32
2023-03-29T10:36:57.225Z,24.42
2023-03-29T10:37:57.243Z,33.30
2023-03-29T10:38:57.246Z,43.54
2023-03-29T10:39:57.255Z,47.05
2023-03-29T10:40:57.307Z,56.37
2023-03-29T10:41:57.347Z,61.59
2023-03-29T10:42:57.366Z,68.58
2023-03-29T10:43:57.378Z,67.41
2023-03-29T10:44:57.390Z,74.72
2023-03-29T10:45:57.459Z,76.42
2023-03-29T10:46:57.459Z,83.92
2023-03-29T10:47:57.547Z,86.66
2023-03-29T10:48:57.566Z,86.87
2023-03-29T10:49:57.624Z,89.23
2023-03-29T10:50:57.660Z,99.30
2023-03-29T10:51:57.710Z,99.79
2023-03-29T10:52:57.780Z,101.18
2023-03-29T10:53:57.802Z,91.00
2023-03-29T10:54:57.830Z,81.48
2023-03-29T10:55:57.867Z,80.99
2023-03-29T10:56:57.997Z,81.24
2023-03-29T10:57:57.976Z,88.79
2023-03-29T10:58:58.015Z,88.99
2023-03-29T10:59:58.587Z,101.76
2023-03-29T11:00:58.140Z,112.77
2023-03-29T11:01:58.272Z,122.08
2023-03-29T11:02:58.304Z,128.68
2023-03-29T11:03:58.304Z,134.78
2023-03-29T11:04:58.640Z,135.74
2023-03-29T11:05:58.291Z,145.48
2023-03-29T11:06:58.324Z,151.68
2023-03-29T11:07:58.324Z,155.96
2023-03-29T11:08:58.341Z,164.10
2023-03-29T11:09:58.320Z,174.55
2023-03-29T11:10:58.338Z,172.97
2023-03-29T11:12:08.601Z,178.67
2023-03-29T11:12:59.418Z,178.86
2023-03-29T11:13:59.990Z,172.49
2023-03-29T11:14:58.567Z,143.62
2023-03-29T11:15:58.660Z,154.45
2023-03-29T11:16:58.394Z,158.14
2023-03-29T11:17:58.414Z,153.06
2023-03-29T11:18:58.393Z,149.37
2023-03-29T11:19:58.373Z,155.56
2023-03-29T11:20:58.365Z,158.30
2023-03-29T11:21:58.338Z,155.21
2023-03-29T11:22:58.332Z,126.47
2023-03-29T11:23:58.358Z,117.97
2023-03-29T11:24:58.372Z,91.71
2023-03-29T11:25:58.393Z,81.47
2023-03-29T11:26:58.409Z,85.63
2023-03-29T11:27:58.421Z,85.99
2023-03-29T11:28:58.434Z,108.20
2023-03-29T11:29:58.469Z,98.80
2023-03-29T11:30:58.593Z,110.17
2023-03-29T11:31:58.563Z,112.91
2023-03-29T11:32:58.603Z,112.73
2023-03-29T11:33:58.599Z,118.53
2023-03-29T11:34:58.662Z,122.18
2023-03-29T11:35:58.674Z,120.46
2023-03-29T11:36:58.668Z,124.71
2023-03-29T11:37:58.706Z,122.14
2023-03-29T11:38:58.796Z,128.18
2023-03-29T11:39:58.826Z,130.50
2023-03-29T11:40:58.868Z,129.48
2023-03-29T11:41:58.927Z,132.91
2023-03-29T11:42:58.952Z,139.18
2023-03-29T11:43:58.988Z,144.42
2023-03-29T11:44:59.042Z,143.55
2023-03-29T11:45:59.050Z,148.02
2023-03-29T11:46:59.091Z,146.54
2023-03-29T11:47:59.085Z,155.44
2023-03-29T11:48:59.080Z,149.88
2023-03-29T11:49:59.083Z,158.72
2023-03-29T11:50:59.083Z,160.55
2023-03-29T11:51:59.087Z,158.29
2023-03-29T11:52:59.055Z,162.64
2023-03-29T11:53:59.073Z,166.55
2023-03-29T11:54:59.087Z,166.63
2023-03-29T11:55:59.571Z,169.95
2023-03-29T11:56:59.174Z,166.68
2023-03-29T11:57:59.577Z,165.61
2023-03-29T11:58:59.144Z,162.40
2023-03-29T11:59:59.151Z,170.96
2023-03-29T12:00:59.193Z,164.20
2023-03-29T12:01:59.184Z,152.90
2023-03-29T12:02:59.688Z,154.48
2023-03-29T12:03:59.364Z,155.81
2023-03-29T12:04:59.175Z,160.63
2023-03-29T12:05:59.141Z,170.33
2023-03-29T12:06:59.211Z,172.52
2023-03-29T12:07:59.618Z,181.43
2023-03-29T12:08:59.320Z,192.47
2023-03-29T12:09:59.367Z,197.31
2023-03-29T12:10:59.424Z,205.27
2023-03-29T12:11:59.485Z,207.26
2023-03-29T12:12:59.589Z,210.18
2023-03-29T12:13:59.570Z,212.95
2023-03-29T12:14:59.624Z,213.23
2023-03-29T12:15:59.660Z,215.29
2023-03-29T12:16:59.721Z,216.65
2023-03-29T12:17:59.774Z,217.05
2023-03-29T12:18:59.771Z,221.03
2023-03-29T12:19:59.802Z,224.08
2023-03-29T12:20:59.904Z,219.00
2023-03-29T12:21:59.875Z,220.68
2023-03-29T12:22:59.881Z,214.94
2023-03-29T12:23:59.922Z,200.71
2023-03-29T12:24:59.947Z,189.55
2023-03-29T12:25:59.975Z,183.68
2023-03-29T12:27:00.031Z,138.45
2023-03-29T12:28:00.133Z,113.68
2023-03-29T12:29:00.116Z,109.80
2023-03-29T12:30:00.202Z,102.00
2023-03-29T12:31:00.284Z,88.47
2023-03-29T12:32:00.334Z,83.34
2023-03-29T12:33:00.326Z,80.36
2023-03-29T12:34:00.272Z,76.26
2023-03-29T12:35:00.388Z,69.39
2023-03-29T12:36:00.410Z,66.16
2023-03-29T12:37:00.413Z,61.14
2023-03-29T12:38:00.428Z,48.08
2023-03-29T12:39:00.411Z,41.54
2023-03-29T12:40:00.428Z,38.64